EAU - Chippewa Valley Rgnl

Pirep is a free, collaborative database of all public and private airports located within the United States. All pilots are welcome to contribute, edit, and improve any airport they have local knowledge about, no registration required.
Uploaded photos will be licensed under a CC BY-SA 4.0 license. Please only upload photos you have the rights to use.
Tags
Public
Food
Car Rental
METAR / TAF
Edit Tags
Camping
Lodging
Bicycles
Swimming
Golfing
Fishing
Hot Springs
Museum
Flying Clubs
Airpark
Upcoming Events
No upcoming events. Is anything happening here soon?
*
*
*

Where exactly on/near the airport is this event taking place?

Is there a webpage with more information for this event?

Who should be contacted for more information?

What is this event all about?

Repeat every
Description
Last updated: 2023-05-10 00:18:06 CDT
Transient Parking
Fuel Location
Landing & Tie-down Fees
Crew Car Availability
Flying Clubs
WiFi Access
Airport Statistics
Location: Eau Claire, WI
Elevation: 913ft
Sectional: Green Bay
Activation date: Nov 1944
Fuel: 100LL, A (prices)
Runway 04/22: 8,101ft
Runway 14/32: 5,000ft
Access: Open to the public
Current Weather — MVFR
  • Weather data is strictly informational and not for flight planning purposes.
  • METAR
    2024-05-30 04:20:00 CDT
    Ceiling Wind Temperature Dewpoint Weather Visbility
    Sky clear Calm 44°F 42°F Mist 3SM
    Raw: KEAU 300920Z AUTO 00000KT 3SM BR CLR 07/06 A3018 RMK AO2 T00720061
  • TAF
    2024-05-30 04:00:00 CDT – 2024-05-30 09:00:00 CDT
    Ceiling Wind Weather Visbility
    Sky clear 140° @ 3kt N/A 6SM
    Clouds: @ ft
    Raw: KEAU 300917Z 3009/3106 14003KT P6SM SKC TEMPO 3009/3011 2SM BR FM301400 17009KT P6SM SKC FM301800 17012G20KT P6SM FEW250 FM310000 16011KT P6SM OVC250
  • TAF
    2024-05-30 04:00:00 CDT – 2024-05-30 06:00:00 CDT
    Ceiling Wind Weather Visbility
    Sky clear ° @ kt Mist 2SM
    Raw: KEAU 300917Z 3009/3106 14003KT P6SM SKC TEMPO 3009/3011 2SM BR FM301400 17009KT P6SM SKC FM301800 17012G20KT P6SM FEW250 FM310000 16011KT P6SM OVC250
  • TAF
    2024-05-30 09:00:00 CDT – 2024-05-30 13:00:00 CDT
    Ceiling Wind Weather Visbility
    Sky clear 170° @ 9kt N/A 6SM
    Clouds: @ ft
    Raw: KEAU 300917Z 3009/3106 14003KT P6SM SKC TEMPO 3009/3011 2SM BR FM301400 17009KT P6SM SKC FM301800 17012G20KT P6SM FEW250 FM310000 16011KT P6SM OVC250
  • TAF
    2024-05-30 13:00:00 CDT – 2024-05-30 19:00:00 CDT
    Ceiling Wind Weather Visbility
    Sky clear 170° @ 12kt, gusts 20kt N/A 6SM
    Clouds: Few @ 25,000ft
    Raw: KEAU 300917Z 3009/3106 14003KT P6SM SKC TEMPO 3009/3011 2SM BR FM301400 17009KT P6SM SKC FM301800 17012G20KT P6SM FEW250 FM310000 16011KT P6SM OVC250
  • TAF
    2024-05-30 19:00:00 CDT – 2024-05-31 01:00:00 CDT
    Ceiling Wind Weather Visbility
    25,000ft 160° @ 11kt N/A 6SM
    Clouds: Overcast @ 25,000ft
    Raw: KEAU 300917Z 3009/3106 14003KT P6SM SKC TEMPO 3009/3011 2SM BR FM301400 17009KT P6SM SKC FM301800 17012G20KT P6SM FEW250 FM310000 16011KT P6SM OVC250
Click/tap to add an annotation marker to the map
Airport Webcams
No webcams added yet.
Direct links to live image URLs will be displayed inline on this page. URLs to separate webpages will be linked to.
URL:
Direct links to live image URLs will be displayed inline on this page. URLs to separate webpages will be linked to.
URL:
Remarks
  • Arff not avbl 24 hrs. ppr for unscheduled acr opns with more than 9 passenger seats; contact arpt mgr 715-839-6241. acr opns with more than 9 passenger seats na in excess of 15 min before or after sked arr/dep times without ppr with arpt mgr and confirmation arff is avlb prior to ldg or tkf.
  • Arpt conds unmon 2200 - 0500.
  • Deer & birds on & invof arpt.
  • For cd if una to ctc on fss freq, ctc minneapolis artcc at 651-463-5588.
  • All ga acft park at fbo.
Comments
Leave a comment What was your experience like at this airport?